Time;durP1;ratioP1;P1;durP2;ratioP2;P2;SDS_P1;SDS_P2;PMS_P1;PMS_P2;Temp;Humidity;BMP_temperature;BMP_pressure;BME280_temperature;BME280_humidity;BME280_pressure;Samples;Min_cycle;Max_cycle;Signal;HPM_P1;HPM_P2
2022/12/05 05:01:14;;;;;;;4.07;3.78;;;3.60;99.90;;;;;;5661899;23;20743;-63
2022/12/05 05:03:45;;;;;;;9.77;3.92;;;3.60;99.90;;;;;;4948896;29;20209;-63
2022/12/05 05:06:12;;;;;;;19.73;7.13;;;3.60;99.90;;;;;;4946326;28;20700;-63
2022/12/05 05:08:47;;;;;;;9.38;7.15;;;3.60;99.90;;;;;;4952429;29;20593;-63
2022/12/05 05:11:16;;;;;;;9.55;7.50;;;3.60;99.90;;;;;;4946019;29;20236;-62
2022/12/05 05:13:43;;;;;;;20.35;6.00;;;3.60;99.90;;;;;;4956797;29;20205;-63
2022/12/05 05:16:18;;;;;;;10.70;8.43;;;3.60;99.90;;;;;;4966848;23;20237;-62
2022/12/05 05:18:44;;;;;;;9.50;8.65;;;3.60;99.90;;;;;;4958579;28;20248;-61
2022/12/05 05:21:16;;;;;;;10.00;7.93;;;3.60;99.90;;;;;;4961676;28;20211;-63
2022/12/05 05:23:43;;;;;;;12.40;7.25;;;3.60;99.90;;;;;;4972780;28;20219;-64
2022/12/05 05:26:09;;;;;;;15.18;6.63;;;3.60;99.90;;;;;;4947438;28;20218;-64
2022/12/05 05:28:36;;;;;;;9.35;5.68;;;3.60;99.90;;;;;;4941432;29;20237;-64
2022/12/05 05:31:03;;;;;;;14.13;7.80;;;3.60;99.90;;;;;;4939170;29;20202;-63
2022/12/05 05:33:31;;;;;;;9.82;6.40;;;3.60;99.90;;;;;;4934223;29;20210;-64
2022/12/05 05:36:02;;;;;;;16.15;10.98;;;3.60;99.90;;;;;;4937802;29;20236;-63
2022/12/05 05:38:29;;;;;;;29.70;9.20;;;3.60;99.90;;;;;;4946067;29;20684;-68
2022/12/05 05:40:56;;;;;;;8.55;6.72;;;3.60;99.90;;;;;;4942606;29;20708;-67
2022/12/05 05:43:22;;;;;;;12.55;8.38;;;3.60;99.90;;;;;;4950160;29;20225;-67
2022/12/05 05:45:49;;;;;;;12.38;7.43;;;3.50;99.90;;;;;;4941699;29;20237;-67
2022/12/05 05:48:16;;;;;;;15.15;7.22;;;3.50;99.90;;;;;;4934152;29;20860;-67
2022/12/05 05:50:44;;;;;;;6.22;4.97;;;3.50;99.90;;;;;;4937226;29;20236;-67
2022/12/05 05:53:10;;;;;;;10.88;7.53;;;3.50;99.90;;;;;;4949263;29;20213;-67
2022/12/05 05:55:39;;;;;;;10.70;9.15;;;3.50;99.90;;;;;;4945573;29;20325;-67
2022/12/05 05:58:06;;;;;;;9.52;6.40;;;3.50;99.90;;;;;;4944472;29;20811;-67
2022/12/05 06:00:33;;;;;;;12.95;7.85;;;3.50;99.90;;;;;;4946045;29;20210;-67
2022/12/05 06:03:00;;;;;;;9.57;8.50;;;3.50;99.90;;;;;;4944857;29;20209;-67
2022/12/05 06:05:27;;;;;;;8.70;7.53;;;3.40;99.90;;;;;;4942021;29;20241;-68
2022/12/05 06:07:55;;;;;;;11.00;6.20;;;3.40;99.90;;;;;;4937629;29;20210;-67
2022/12/05 06:10:21;;;;;;;38.40;8.10;;;3.40;99.90;;;;;;4949010;28;20206;-67
2022/12/05 06:12:48;;;;;;;18.88;10.30;;;3.40;99.90;;;;;;4943884;29;20217;-67
2022/12/05 06:15:15;;;;;;;14.00;10.63;;;3.40;99.90;;;;;;4941995;29;20233;-68
2022/12/05 06:17:41;;;;;;;14.57;7.50;;;3.40;99.90;;;;;;4940105;29;20656;-68
2022/12/05 06:20:09;;;;;;;2.53;2.40;;;3.40;99.90;;;;;;4937665;29;20209;-68
2022/12/05 06:22:36;;;;;;;9.65;6.13;;;3.40;99.90;;;;;;4941454;29;20209;-68
2022/12/05 06:25:05;;;;;;;22.42;10.85;;;3.40;99.90;;;;;;4950872;29;20306;-68
2022/12/05 06:27:32;;;;;;;23.25;11.77;;;3.40;99.90;;;;;;4944605;29;20230;-67
2022/12/05 06:29:59;;;;;;;31.08;10.30;;;3.40;99.90;;;;;;4939866;29;20616;-67
2022/12/05 06:32:28;;;;;;;13.30;7.03;;;3.40;99.90;;;;;;4940247;29;20627;-68
2022/12/05 06:34:55;;;;;;;20.15;12.88;;;3.40;99.90;;;;;;4939912;28;20249;-68
2022/12/05 06:37:22;;;;;;;13.15;9.77;;;3.40;99.90;;;;;;4940823;29;20202;-68
2022/12/05 06:39:50;;;;;;;19.42;8.07;;;3.40;99.90;;;;;;4937412;29;20213;-67
2022/12/05 06:42:18;;;;;;;25.17;10.93;;;3.30;99.90;;;;;;4938099;29;20227;-68
2022/12/05 06:44:45;;;;;;;20.30;7.97;;;3.40;99.90;;;;;;4936491;29;20202;-68
2022/12/05 06:47:12;;;;;;;13.63;9.80;;;3.30;99.90;;;;;;4940148;29;20228;-68
2022/12/05 06:49:38;;;;;;;11.32;7.18;;;3.30;99.90;;;;;;4943552;28;20214;-68
2022/12/05 06:52:05;;;;;;;21.50;10.85;;;3.40;99.90;;;;;;4941461;29;20210;-68
2022/12/05 06:54:32;;;;;;;20.20;14.57;;;3.30;99.90;;;;;;4944025;29;20213;-68
2022/12/05 06:56:58;;;;;;;29.80;8.05;;;3.40;99.90;;;;;;4941973;29;20228;-69
2022/12/05 06:59:26;;;;;;;19.50;6.97;;;3.30;99.90;;;;;;4944734;28;20202;-68
2022/12/05 07:01:52;;;;;;;14.68;8.30;;;3.30;99.90;;;;;;4946258;29;20705;-68
2022/12/05 07:04:23;;;;;;;24.97;8.93;;;3.30;99.90;;;;;;4944485;28;20209;-69
2022/12/05 07:06:50;;;;;;;7.50;6.85;;;3.30;99.90;;;;;;4942653;29;20242;-68
2022/12/05 07:09:17;;;;;;;13.63;8.40;;;3.30;99.90;;;;;;4951885;29;20257;-68
2022/12/05 07:11:46;;;;;;;12.32;8.45;;;3.20;99.90;;;;;;4945278;29;20232;-68
2022/12/05 07:14:13;;;;;;;14.85;6.68;;;3.20;99.90;;;;;;4938077;29;20218;-68
2022/12/05 07:16:41;;;;;;;20.70;8.00;;;3.20;99.90;;;;;;4933531;29;20230;-68
2022/12/05 07:19:09;;;;;;;14.75;7.35;;;3.20;99.90;;;;;;4945975;29;20591;-67
2022/12/05 07:21:35;;;;;;;17.00;6.45;;;3.20;99.90;;;;;;4938411;29;20205;-67
2022/12/05 07:24:02;;;;;;;19.48;8.93;;;3.20;99.90;;;;;;4947644;29;20209;-67
2022/12/05 07:26:29;;;;;;;11.00;5.95;;;3.20;99.90;;;;;;4942290;29;20237;-67
2022/12/05 07:28:56;;;;;;;5.50;3.08;;;3.20;99.90;;;;;;4944238;29;20206;-68
2022/12/05 07:31:25;;;;;;;11.10;4.95;;;3.20;99.90;;;;;;4942169;29;20557;-67
2022/12/05 07:33:53;;;;;;;4.45;3.67;;;3.10;99.90;;;;;;4951572;29;20209;-67
2022/12/05 07:36:21;;;;;;;15.02;8.18;;;3.10;99.90;;;;;;4934454;29;20268;-67
2022/12/05 07:38:48;;;;;;;18.55;4.97;;;3.10;99.90;;;;;;4944052;29;20210;-67
2022/12/05 07:41:19;;;;;;;20.08;8.00;;;3.10;99.90;;;;;;4948688;29;20227;-69
2022/12/05 07:43:46;;;;;;;15.80;5.35;;;3.10;99.90;;;;;;4950943;29;20220;-67
2022/12/05 07:46:13;;;;;;;12.10;5.18;;;3.00;99.90;;;;;;4940389;29;20234;-69
2022/12/05 07:48:41;;;;;;;16.33;5.40;;;3.10;99.90;;;;;;4936982;29;20562;-68
2022/12/05 07:51:09;;;;;;;4.15;3.78;;;3.00;99.90;;;;;;4939651;29;20206;-68
2022/12/05 07:53:37;;;;;;;18.15;7.60;;;3.00;99.90;;;;;;4946130;29;20292;-67
2022/12/05 07:56:06;;;;;;;5.25;4.75;;;3.00;99.90;;;;;;4946662;29;20256;-70
2022/12/05 07:58:34;;;;;;;20.33;7.35;;;3.00;99.90;;;;;;4933054;29;20277;-68
2022/12/05 08:01:10;;;;;;;7.93;4.20;;;3.00;99.90;;;;;;4935889;29;20201;-68
2022/12/05 08:03:37;;;;;;;12.93;5.55;;;3.00;99.90;;;;;;4936325;29;20280;-68
2022/12/05 08:06:05;;;;;;;8.10;4.35;;;3.00;99.90;;;;;;4946269;29;20230;-69
2022/12/05 08:08:33;;;;;;;6.63;6.07;;;3.00;99.90;;;;;;4940765;29;20217;-68
2022/12/05 08:11:04;;;;;;;10.38;4.95;;;3.00;99.90;;;;;;4935961;29;20202;-69
2022/12/05 08:13:31;;;;;;;3.75;3.53;;;3.00;99.90;;;;;;4936317;29;20297;-68
2022/12/05 08:16:01;;;;;;;8.40;4.40;;;3.00;99.90;;;;;;4943686;29;20228;-70
2022/12/05 08:18:28;;;;;;;13.65;6.55;;;3.10;99.90;;;;;;4949386;29;20244;-68
2022/12/05 08:20:54;;;;;;;5.78;5.18;;;3.10;99.90;;;;;;4943835;29;21458;-69
2022/12/05 08:23:21;;;;;;;21.98;10.48;;;3.10;99.90;;;;;;4937614;29;20464;-69
2022/12/05 08:25:49;;;;;;;13.57;7.13;;;3.10;99.90;;;;;;4946434;29;20237;-67
2022/12/05 08:28:16;;;;;;;5.05;4.55;;;3.10;99.90;;;;;;4948847;29;20305;-68
2022/12/05 08:30:42;;;;;;;8.23;6.15;;;3.20;99.90;;;;;;4954549;29;20205;-68
2022/12/05 08:33:09;;;;;;;9.18;6.95;;;3.20;99.90;;;;;;4939912;29;20220;-69
2022/12/05 08:35:37;;;;;;;11.85;6.43;;;3.20;99.90;;;;;;4944828;29;20238;-68
2022/12/05 08:38:03;;;;;;;7.05;5.28;;;3.20;99.90;;;;;;4945273;29;20216;-68
2022/12/05 08:40:30;;;;;;;14.38;6.15;;;3.10;99.90;;;;;;4940489;29;20687;-68
2022/12/05 08:42:58;;;;;;;14.70;4.93;;;3.10;99.90;;;;;;4936133;29;20686;-69
2022/12/05 08:45:24;;;;;;;4.57;3.28;;;3.10;99.90;;;;;;4943072;29;20234;-69
2022/12/05 08:47:51;;;;;;;4.45;4.10;;;3.10;99.90;;;;;;4946274;29;20228;-69
2022/12/05 08:50:18;;;;;;;10.85;5.63;;;3.10;99.90;;;;;;4950003;29;20210;-68
2022/12/05 08:52:45;;;;;;;5.40;2.65;;;3.10;99.90;;;;;;4941540;29;20205;-70
2022/12/05 08:55:11;;;;;;;12.15;6.82;;;3.10;99.90;;;;;;4946595;29;20248;-69
2022/12/05 08:57:38;;;;;;;10.48;6.47;;;3.10;99.90;;;;;;4946225;29;20202;-68
2022/12/05 09:00:08;;;;;;;7.30;5.85;;;3.10;99.90;;;;;;4944731;29;20211;-68
2022/12/05 09:02:34;;;;;;;8.65;3.95;;;3.10;99.90;;;;;;4937300;29;20682;-69
2022/12/05 09:05:01;;;;;;;9.02;4.28;;;3.10;99.90;;;;;;4945365;29;20580;-68
2022/12/05 09:07:29;;;;;;;10.85;5.72;;;3.10;99.90;;;;;;4947493;29;20229;-67
2022/12/05 09:09:55;;;;;;;10.02;6.55;;;3.10;99.90;;;;;;4936211;29;20210;-68
2022/12/05 09:12:22;;;;;;;12.60;7.75;;;3.20;99.90;;;;;;4941644;29;20221;-68
2022/12/05 09:14:49;;;;;;;11.68;5.55;;;3.10;99.90;;;;;;4942393;29;20218;-68
2022/12/05 09:17:17;;;;;;;5.75;4.22;;;3.10;99.90;;;;;;4941538;29;20210;-68
2022/12/05 09:19:43;;;;;;;8.63;5.25;;;3.20;99.90;;;;;;4941642;29;20246;-69
2022/12/05 09:22:10;;;;;;;6.65;6.13;;;3.20;99.90;;;;;;4950486;29;20213;-69
2022/12/05 09:24:37;;;;;;;11.23;4.80;;;3.20;99.90;;;;;;4945258;29;20206;-68
2022/12/05 09:27:04;;;;;;;12.13;4.18;;;3.20;99.90;;;;;;4953508;29;20233;-68
2022/12/05 09:29:31;;;;;;;14.10;4.70;;;3.20;99.90;;;;;;4945469;29;20206;-69
2022/12/05 09:31:58;;;;;;;9.13;4.90;;;3.20;99.90;;;;;;4940149;29;20248;-69
2022/12/05 09:34:26;;;;;;;5.78;5.35;;;3.20;99.90;;;;;;4947857;29;20573;-69
2022/12/05 09:36:52;;;;;;;4.85;4.47;;;3.20;99.90;;;;;;4941063;29;20238;-68
2022/12/05 09:39:20;;;;;;;5.07;4.60;;;3.20;99.90;;;;;;4945633;29;20214;-69
2022/12/05 09:42:26;;;;;;;23.95;10.35;;;3.20;99.90;;;;;;4946698;29;20229;-68
2022/12/05 09:45:04;;;;;;;5.63;4.07;;;3.20;99.90;;;;;;4926401;29;20205;-69
2022/12/05 09:47:43;;;;;;;8.18;3.50;;;3.20;99.90;;;;;;4948846;29;20236;-68
2022/12/05 09:50:18;;;;;;;15.20;6.68;;;3.20;99.90;;;;;;4940754;29;20202;-68
2022/12/05 09:53:00;;;;;;;17.75;4.50;;;3.30;99.90;;;;;;4937657;29;20237;-69
2022/12/05 09:55:34;;;;;;;6.80;3.65;;;3.30;99.90;;;;;;4936270;29;20256;-68
2022/12/05 09:58:03;;;;;;;7.30;2.70;;;3.30;99.90;;;;;;4943986;29;20205;-68
2022/12/05 10:00:32;;;;;;;6.05;5.07;;;3.30;99.90;;;;;;4941656;29;20261;-68
2022/12/05 10:03:10;;;;;;;6.63;4.53;;;3.30;99.90;;;;;;4945826;29;20214;-69
2022/12/05 10:05:43;;;;;;;4.88;4.55;;;3.30;99.90;;;;;;4941542;29;20298;-70
2022/12/05 10:08:18;;;;;;;14.95;7.57;;;3.30;99.90;;;;;;4941549;29;20226;-67
2022/12/05 10:10:57;;;;;;;5.15;4.75;;;3.30;99.90;;;;;;4944149;29;20221;-67
2022/12/05 10:13:36;;;;;;;2.72;2.63;;;3.40;99.90;;;;;;4938234;29;20214;-68
2022/12/05 10:16:06;;;;;;;2.80;2.60;;;3.30;99.90;;;;;;4947624;29;20698;-69
2022/12/05 10:18:39;;;;;;;11.00;4.88;;;3.40;99.90;;;;;;4937405;29;20207;-70
2022/12/05 10:21:14;;;;;;;6.55;5.18;;;3.40;99.90;;;;;;4941695;29;20210;-70
2022/12/05 10:23:50;;;;;;;6.32;3.20;;;3.40;99.90;;;;;;4937289;29;20215;-69
2022/12/05 10:26:17;;;;;;;8.77;3.55;;;3.50;99.90;;;;;;4947800;29;20234;-68
2022/12/05 10:28:51;;;;;;;6.95;4.00;;;3.40;99.90;;;;;;4946680;29;20611;-68
2022/12/05 10:31:22;;;;;;;5.43;4.20;;;3.40;99.90;;;;;;4942358;29;20320;-69
2022/12/05 10:33:55;;;;;;;11.35;3.47;;;3.40;99.90;;;;;;4938724;29;20207;-69
2022/12/05 10:36:25;;;;;;;4.40;4.10;;;3.40;99.90;;;;;;4944582;29;20230;-69
2022/12/05 10:38:52;;;;;;;4.05;3.75;;;3.40;99.90;;;;;;4949178;29;20202;-69
2022/12/05 10:41:19;;;;;;;5.40;4.80;;;3.40;99.90;;;;;;4939341;29;20669;-69
2022/12/05 10:43:48;;;;;;;4.22;3.83;;;3.40;99.90;;;;;;4944086;28;20209;-69
2022/12/05 10:46:16;;;;;;;6.40;6.00;;;3.40;99.90;;;;;;4943921;28;20265;-68
2022/12/05 10:48:44;;;;;;;13.25;7.10;;;3.40;99.90;;;;;;4948527;28;20248;-68
2022/12/05 10:51:15;;;;;;;5.10;4.50;;;3.50;99.90;;;;;;4965845;28;20214;-68
2022/12/05 10:53:48;;;;;;;9.85;5.32;;;3.50;99.90;;;;;;4948413;28;20205;-69
2022/12/05 10:56:37;;;;;;;8.38;4.20;;;3.50;99.90;;;;;;4949696;28;20284;-68
2022/12/05 10:59:04;;;;;;;12.68;6.40;;;3.50;99.90;;;;;;4944989;29;20212;-68
2022/12/05 11:01:32;;;;;;;6.68;5.18;;;3.50;99.90;;;;;;4950192;28;20213;-68
2022/12/05 11:04:00;;;;;;;6.80;4.07;;;3.50;99.90;;;;;;4938266;28;20870;-69
2022/12/05 11:06:29;;;;;;;7.97;3.75;;;3.50;99.90;;;;;;4948275;28;20225;-68
2022/12/05 11:08:59;;;;;;;15.35;6.88;;;3.50;99.90;;;;;;4937537;28;20237;-68
2022/12/05 11:11:28;;;;;;;5.50;4.75;;;3.50;99.90;;;;;;4952358;28;20629;-68
2022/12/05 11:13:56;;;;;;;6.28;5.95;;;3.50;99.90;;;;;;4967185;28;20322;-68
2022/12/05 11:16:25;;;;;;;7.40;3.30;;;3.50;99.90;;;;;;4947283;28;20252;-69
2022/12/05 11:18:52;;;;;;;4.20;3.85;;;3.50;99.90;;;;;;4951628;28;20210;-68
2022/12/05 11:21:19;;;;;;;14.23;4.05;;;3.50;99.90;;;;;;4938618;28;20214;-68
2022/12/05 11:23:47;;;;;;;10.63;5.45;;;3.40;99.90;;;;;;4958846;28;20213;-67
2022/12/05 11:26:33;;;;;;;8.90;5.65;;;3.50;99.90;;;;;;4952476;28;20699;-68
2022/12/05 11:28:59;;;;;;;7.32;4.38;;;3.50;99.90;;;;;;4954298;28;22386;-68
2022/12/05 11:31:29;;;;;;;6.90;4.72;;;3.50;99.90;;;;;;4937671;28;20210;-69
2022/12/05 11:34:03;;;;;;;10.18;5.35;;;3.50;99.90;;;;;;4948132;29;20651;-69
2022/12/05 11:36:37;;;;;;;5.43;4.75;;;3.50;99.90;;;;;;4936525;29;20629;-68
2022/12/05 11:39:04;;;;;;;3.30;3.10;;;3.50;99.90;;;;;;4939992;29;20217;-67
2022/12/05 11:41:44;;;;;;;19.05;4.30;;;3.50;99.90;;;;;;4938482;29;20214;-68
2022/12/05 11:44:28;;;;;;;4.18;3.58;;;3.50;99.90;;;;;;4947306;29;20672;-68
2022/12/05 11:47:10;;;;;;;7.95;5.15;;;3.50;99.90;;;;;;4936927;29;20225;-68
2022/12/05 11:49:59;;;;;;;21.80;6.55;;;3.60;99.90;;;;;;4949583;29;20269;-67
2022/12/05 11:52:35;;;;;;;6.85;2.28;;;3.60;99.90;;;;;;4948734;28;20581;-68
2022/12/05 11:55:14;;;;;;;4.57;3.88;;;3.60;99.90;;;;;;4951275;29;20267;-69
2022/12/05 11:57:59;;;;;;;13.93;3.15;;;3.60;99.90;;;;;;4947561;29;20616;-67
2022/12/05 12:00:33;;;;;;;14.25;5.03;;;3.60;99.90;;;;;;4942737;29;20633;-68
2022/12/05 12:03:36;;;;;;;6.90;5.43;;;3.60;99.90;;;;;;4946294;29;20204;-68
2022/12/05 12:06:19;;;;;;;6.38;3.42;;;3.60;99.90;;;;;;4939022;28;20229;-68
2022/12/05 12:08:55;;;;;;;4.00;3.80;;;3.60;99.90;;;;;;4948430;28;20226;-68
2022/12/05 12:11:30;;;;;;;16.02;6.45;;;3.60;99.90;;;;;;4952113;29;20205;-68
2022/12/05 12:14:07;;;;;;;8.43;4.88;;;3.60;99.90;;;;;;4950830;28;20665;-70
2022/12/05 12:16:44;;;;;;;3.25;3.05;;;3.50;99.90;;;;;;4958745;28;20778;-69
2022/12/05 12:19:31;;;;;;;10.95;3.95;;;3.60;99.90;;;;;;4952231;29;20228;-68
2022/12/05 12:22:17;;;;;;;7.63;6.13;;;3.50;99.90;;;;;;4955559;28;20209;-69
2022/12/05 12:25:06;;;;;;;3.58;3.22;;;3.50;99.90;;;;;;4955678;28;20204;-70
2022/12/05 12:27:49;;;;;;;3.42;2.53;;;3.40;99.90;;;;;;4948055;29;20221;-69
2022/12/05 12:30:21;;;;;;;3.17;2.97;;;3.40;99.90;;;;;;4947487;28;20231;-70
2022/12/05 12:33:00;;;;;;;8.90;3.03;;;3.40;99.90;;;;;;4958068;28;20205;-68
2022/12/05 12:35:30;;;;;;;4.15;3.40;;;3.50;99.90;;;;;;4948600;29;20227;-68
2022/12/05 12:38:17;;;;;;;4.75;4.45;;;3.50;99.90;;;;;;4949809;29;20214;-68
2022/12/05 12:40:49;;;;;;;5.00;4.22;;;3.50;99.90;;;;;;4944954;29;20584;-67
2022/12/05 12:43:25;;;;;;;4.60;3.25;;;3.50;99.90;;;;;;4952371;29;20217;-68
2022/12/05 12:46:09;;;;;;;14.05;3.88;;;3.50;99.90;;;;;;4944327;29;20261;-67
2022/12/05 12:48:52;;;;;;;16.30;5.03;;;3.50;99.90;;;;;;4944999;28;20235;-69
2022/12/05 12:51:20;;;;;;;7.82;3.38;;;3.50;99.90;;;;;;4944416;28;20256;-69
2022/12/05 12:53:57;;;;;;;4.68;4.28;;;3.40;99.90;;;;;;4954774;29;20296;-68
2022/12/05 12:56:37;;;;;;;2.88;2.78;;;3.40;99.90;;;;;;4948559;29;20228;-69
2022/12/05 12:59:16;;;;;;;6.95;2.25;;;3.40;99.90;;;;;;4946749;28;20197;-68
2022/12/05 13:01:48;;;;;;;4.10;3.78;;;3.30;99.90;;;;;;4947074;29;20248;-69
2022/12/05 13:04:19;;;;;;;13.32;5.43;;;3.30;99.90;;;;;;4948891;29;21202;-69
2022/12/05 13:06:49;;;;;;;3.97;2.30;;;3.20;99.90;;;;;;4943781;29;20237;-68
2022/12/05 13:09:20;;;;;;;2.97;2.08;;;3.30;99.90;;;;;;4935248;29;20237;-68
2022/12/05 13:11:49;;;;;;;0.98;0.98;;;3.20;99.90;;;;;;4941765;29;20281;-68
2022/12/05 13:14:21;;;;;;;4.22;3.90;;;3.20;99.90;;;;;;4946928;29;20222;-67
2022/12/05 13:16:53;;;;;;;3.10;2.30;;;3.20;99.90;;;;;;4946314;29;20233;-66
2022/12/05 13:19:27;;;;;;;4.35;3.50;;;3.20;99.90;;;;;;4936711;28;20210;-67
2022/12/05 13:21:55;;;;;;;1.77;1.67;;;3.20;99.90;;;;;;4943368;29;20222;-68
2022/12/05 13:24:25;;;;;;;10.15;4.25;;;3.20;99.90;;;;;;4978124;23;20743;-71
2022/12/05 13:26:53;;;;;;;2.75;2.65;;;3.10;99.90;;;;;;4968000;28;20216;-70
2022/12/05 13:29:30;;;;;;;2.40;2.20;;;3.20;99.90;;;;;;4969626;28;20613;-71
2022/12/05 13:31:59;;;;;;;4.18;3.85;;;3.10;99.90;;;;;;4969062;28;21147;-68
2022/12/05 13:34:45;;;;;;;5.28;4.75;;;3.10;99.90;;;;;;4968609;28;20236;-68
2022/12/05 13:43:00;;;;;;;8.30;3.28;;;3.10;99.90;;;;;;4965597;28;20236;-68
2022/12/05 13:45:28;;;;;;;2.58;1.90;;;3.10;99.90;;;;;;4963386;28;20234;-67
2022/12/05 13:48:09;;;;;;;2.75;2.30;;;3.10;99.90;;;;;;4968692;28;20232;-69
2022/12/05 13:50:44;;;;;;;2.63;2.15;;;3.10;99.90;;;;;;4961794;28;20581;-68
2022/12/05 13:53:27;;;;;;;5.35;4.85;;;3.10;99.90;;;;;;4963683;28;20232;-68
2022/12/05 13:56:00;;;;;;;4.78;4.57;;;3.10;99.90;;;;;;4963692;28;20213;-68
2022/12/05 13:58:51;;;;;;;3.08;2.60;;;3.10;99.90;;;;;;4965243;28;20669;-68
2022/12/05 14:01:44;;;;;;;3.83;3.53;;;3.10;99.90;;;;;;4970310;28;20543;-68
2022/12/05 14:04:38;;;;;;;2.85;2.67;;;3.10;99.90;;;;;;4966144;28;20620;-67
2022/12/05 14:07:09;;;;;;;4.68;4.28;;;3.00;99.90;;;;;;4961789;28;20627;-70
2022/12/05 14:09:51;;;;;;;4.18;3.85;;;3.00;99.90;;;;;;4970434;28;20311;-71
2022/12/05 14:12:44;;;;;;;4.53;2.75;;;3.00;99.90;;;;;;4966752;28;20283;-72
2022/12/05 14:15:25;;;;;;;2.88;2.75;;;3.00;99.90;;;;;;4966915;28;20300;-72
2022/12/05 14:17:59;;;;;;;4.65;3.38;;;3.00;99.90;;;;;;4969033;28;20300;-72
2022/12/05 14:20:35;;;;;;;3.75;2.53;;;3.00;99.90;;;;;;4967955;28;20602;-72
2022/12/05 14:23:14;;;;;;;4.75;3.15;;;3.00;99.90;;;;;;4968587;28;20640;-71
2022/12/05 14:25:54;;;;;;;17.75;3.20;;;3.00;99.90;;;;;;4972117;28;20204;-71
2022/12/05 14:28:41;;;;;;;2.72;1.05;;;3.00;99.90;;;;;;4970616;28;20728;-72
2022/12/05 14:31:23;;;;;;;2.60;2.47;;;3.00;99.90;;;;;;4968674;28;20211;-72
2022/12/05 14:34:15;;;;;;;5.45;2.15;;;2.90;99.90;;;;;;4961566;28;20233;-69
2022/12/05 14:36:57;;;;;;;4.60;2.33;;;2.90;99.90;;;;;;4964448;28;20221;-73
2022/12/05 14:39:33;;;;;;;3.13;3.08;;;2.90;99.90;;;;;;4971113;28;20197;-72
2022/12/05 14:42:01;;;;;;;2.95;2.70;;;2.90;99.90;;;;;;4972364;28;20212;-72
2022/12/05 14:44:31;;;;;;;2.88;2.78;;;2.90;99.90;;;;;;4970002;28;20244;-73
2022/12/05 14:47:01;;;;;;;2.05;1.95;;;2.90;99.90;;;;;;4969406;28;20232;-71
2022/12/05 14:49:36;;;;;;;4.25;1.73;;;2.90;99.90;;;;;;4963775;28;20236;-71
2022/12/05 14:52:11;;;;;;;5.45;2.90;;;2.80;99.90;;;;;;4968998;28;20212;-71
2022/12/05 14:54:39;;;;;;;3.00;2.67;;;2.80;99.90;;;;;;4964191;28;20244;-70
2022/12/05 14:57:15;;;;;;;4.30;4.00;;;2.80;99.90;;;;;;4965791;28;20668;-72
2022/12/05 14:59:50;;;;;;;2.92;2.67;;;2.80;99.90;;;;;;4960852;28;20209;-71
2022/12/05 15:02:22;;;;;;;5.40;3.33;;;2.80;99.90;;;;;;4966097;28;20825;-72
2022/12/05 15:04:55;;;;;;;6.05;2.42;;;2.80;99.90;;;;;;4971449;28;20260;-73
2022/12/05 15:07:31;;;;;;;2.08;1.83;;;2.80;99.90;;;;;;4972268;28;20232;-71
2022/12/05 15:10:01;;;;;;;8.45;2.20;;;2.80;99.90;;;;;;4969924;28;20775;-73
2022/12/05 15:12:32;;;;;;;7.13;4.03;;;2.80;99.90;;;;;;4969225;28;20612;-72
2022/12/05 15:15:08;;;;;;;4.80;2.55;;;2.80;99.90;;;;;;4971436;28;20359;-72
2022/12/05 15:17:41;;;;;;;8.70;5.43;;;2.80;99.90;;;;;;4968975;28;20324;-71
2022/12/05 15:20:14;;;;;;;4.03;3.72;;;2.80;99.90;;;;;;4959508;28;20288;-73
2022/12/05 15:22:42;;;;;;;6.28;3.58;;;2.80;99.90;;;;;;4970666;28;20298;-72
2022/12/05 15:25:22;;;;;;;1.92;1.02;;;2.80;99.90;;;;;;4970840;28;20205;-71
2022/12/05 15:28:02;;;;;;;5.80;2.83;;;2.80;99.90;;;;;;4969798;28;20212;-71
2022/12/05 15:30:30;;;;;;;2.83;2.58;;;2.80;99.90;;;;;;4963495;28;20627;-70
2022/12/05 15:32:57;;;;;;;7.07;4.10;;;2.80;99.90;;;;;;4964641;28;20239;-70
2022/12/05 15:35:26;;;;;;;3.78;3.30;;;2.70;99.90;;;;;;4959654;28;20213;-71
2022/12/05 15:37:58;;;;;;;6.05;3.55;;;2.80;99.90;;;;;;4969618;28;20320;-70
2022/12/05 15:40:27;;;;;;;2.33;2.20;;;2.80;99.90;;;;;;4962993;28;20205;-71
2022/12/05 15:42:55;;;;;;;2.15;1.27;;;2.80;99.90;;;;;;4969649;28;20240;-70
2022/12/05 15:45:24;;;;;;;3.83;3.35;;;2.80;99.90;;;;;;4968215;28;20208;-72
2022/12/05 15:47:55;;;;;;;7.15;2.95;;;2.80;99.90;;;;;;4957936;28;20209;-71
2022/12/05 15:50:29;;;;;;;3.63;3.40;;;2.80;99.90;;;;;;4956017;28;20630;-72
2022/12/05 15:53:01;;;;;;;1.77;1.55;;;2.80;99.90;;;;;;4963111;28;20253;-72
2022/12/05 15:55:34;;;;;;;3.28;3.08;;;2.80;99.90;;;;;;4961311;28;20213;-72
2022/12/05 15:58:04;;;;;;;4.85;2.50;;;2.80;99.90;;;;;;4966550;28;20221;-72
2022/12/05 16:00:35;;;;;;;2.90;2.08;;;2.70;99.90;;;;;;4966581;28;20213;-72
2022/12/05 16:03:06;;;;;;;5.45;2.88;;;2.70;99.90;;;;;;4967498;28;20707;-71
2022/12/05 16:05:39;;;;;;;3.70;3.08;;;2.70;99.90;;;;;;4963890;28;20205;-72
2022/12/05 16:08:08;;;;;;;3.65;3.38;;;2.70;99.90;;;;;;4963577;28;20587;-71
2022/12/05 16:10:35;;;;;;;3.25;2.80;;;2.70;99.90;;;;;;4971347;28;20208;-72
2022/12/05 16:13:05;;;;;;;11.75;2.88;;;2.70;99.90;;;;;;4966564;28;20247;-71
2022/12/05 16:15:32;;;;;;;11.10;5.05;;;2.80;99.90;;;;;;4967065;28;20234;-72
2022/12/05 16:18:01;;;;;;;4.80;4.57;;;2.70;99.90;;;;;;4967045;28;20616;-71
2022/12/05 16:20:30;;;;;;;7.28;4.15;;;2.70;99.90;;;;;;4966853;28;20213;-71
2022/12/05 16:23:01;;;;;;;3.28;3.08;;;2.70;99.90;;;;;;4965135;28;20283;-71
2022/12/05 16:25:30;;;;;;;2.20;2.10;;;2.70;99.90;;;;;;4965564;28;20303;-71
2022/12/05 16:27:59;;;;;;;4.80;2.88;;;2.60;99.90;;;;;;4964790;28;20584;-71
2022/12/05 16:30:26;;;;;;;3.65;2.28;;;2.60;99.90;;;;;;4967435;28;20323;-72
2022/12/05 16:33:00;;;;;;;3.25;3.00;;;2.60;99.90;;;;;;4964628;28;20229;-72
2022/12/05 16:35:38;;;;;;;2.85;2.65;;;2.60;99.90;;;;;;4974038;28;20671;-72
2022/12/05 16:38:11;;;;;;;4.55;2.80;;;2.60;99.90;;;;;;4972127;28;20231;-72
2022/12/05 16:40:40;;;;;;;11.27;5.80;;;2.60;99.90;;;;;;4963258;28;20219;-71
2022/12/05 16:43:17;;;;;;;3.45;3.17;;;2.60;99.90;;;;;;4973708;28;20224;-72
2022/12/05 16:45:45;;;;;;;9.20;8.00;;;2.60;99.90;;;;;;4971432;28;20215;-73
2022/12/05 16:48:24;;;;;;;9.73;6.10;;;2.60;99.90;;;;;;4968101;28;20236;-73
2022/12/05 16:50:54;;;;;;;5.97;5.50;;;2.60;99.90;;;;;;4968531;28;20228;-72
2022/12/05 16:53:28;;;;;;;2.65;2.55;;;2.60;99.90;;;;;;4977150;28;20224;-69
2022/12/05 16:55:57;;;;;;;4.63;4.30;;;2.60;99.90;;;;;;4988366;28;20636;-70
2022/12/05 16:58:26;;;;;;;5.53;5.22;;;2.60;99.90;;;;;;4981803;28;20240;-70
2022/12/05 17:01:00;;;;;;;6.47;5.35;;;2.60;99.90;;;;;;4983509;28;20204;-70
2022/12/05 17:03:27;;;;;;;5.53;4.97;;;2.60;99.90;;;;;;4986827;28;20242;-72
2022/12/05 17:05:54;;;;;;;16.02;4.78;;;2.50;99.90;;;;;;4974969;28;20258;-72
2022/12/05 17:08:21;;;;;;;10.02;8.63;;;2.60;99.90;;;;;;4970664;28;20280;-70
2022/12/05 17:10:48;;;;;;;7.70;5.53;;;2.50;99.90;;;;;;4975823;28;20220;-72
2022/12/05 17:13:17;;;;;;;5.28;4.88;;;2.50;99.90;;;;;;4974450;28;20248;-72
2022/12/05 17:15:45;;;;;;;4.38;4.03;;;2.50;99.90;;;;;;4975268;28;20206;-73
2022/12/05 17:18:15;;;;;;;6.72;4.43;;;2.50;99.90;;;;;;4970588;28;20209;-72
2022/12/05 17:20:43;;;;;;;6.28;4.70;;;2.40;99.90;;;;;;4970943;28;20287;-76
2022/12/05 17:23:13;;;;;;;10.93;8.50;;;2.40;99.90;;;;;;4972593;28;20244;-71
2022/12/05 17:25:42;;;;;;;6.78;6.35;;;2.30;99.90;;;;;;4968139;28;20209;-72
2022/12/05 17:28:09;;;;;;;4.07;3.20;;;2.30;99.90;;;;;;4971377;28;20222;-71
2022/12/05 17:30:38;;;;;;;11.23;5.53;;;2.30;99.90;;;;;;4973144;28;20233;-72
2022/12/05 17:33:05;;;;;;;10.75;7.40;;;2.40;99.90;;;;;;4968833;28;20255;-71
2022/12/05 17:35:32;;;;;;;10.00;6.45;;;2.40;99.90;;;;;;4973856;28;20573;-71
2022/12/05 17:37:59;;;;;;;6.95;6.47;;;2.40;99.90;;;;;;4963098;28;20217;-70
2022/12/05 17:40:25;;;;;;;10.20;6.93;;;2.40;99.90;;;;;;4964733;28;20582;-71
2022/12/05 17:42:52;;;;;;;7.72;5.00;;;2.40;99.90;;;;;;4972428;28;20240;-71
2022/12/05 17:45:19;;;;;;;10.45;4.35;;;2.40;99.90;;;;;;4963491;28;20274;-71
2022/12/05 17:47:47;;;;;;;12.25;6.95;;;2.40;99.90;;;;;;4972108;28;20219;-71
2022/12/05 17:50:16;;;;;;;10.35;5.65;;;2.30;99.90;;;;;;4970860;28;20778;-70
2022/12/05 17:52:43;;;;;;;3.45;3.35;;;2.30;99.90;;;;;;4963512;28;20236;-69
2022/12/05 17:55:17;;;;;;;6.78;6.32;;;2.30;99.90;;;;;;4966648;28;20641;-70
2022/12/05 17:57:44;;;;;;;7.25;4.70;;;2.30;99.90;;;;;;4970982;28;20208;-69
2022/12/05 18:00:12;;;;;;;11.07;8.25;;;2.30;99.90;;;;;;4965827;28;20283;-71
2022/12/05 18:02:39;;;;;;;5.72;3.72;;;2.30;99.90;;;;;;4960922;28;20252;-68
2022/12/05 18:05:08;;;;;;;6.63;6.13;;;2.30;99.90;;;;;;4969325;28;20569;-68
2022/12/05 18:07:35;;;;;;;4.07;3.88;;;2.30;99.90;;;;;;4964797;28;20314;-69
2022/12/05 18:10:02;;;;;;;4.90;3.42;;;2.30;99.90;;;;;;4969647;28;20236;-67
2022/12/05 18:12:29;;;;;;;11.35;7.10;;;2.30;99.90;;;;;;4956720;28;20236;-69
2022/12/05 18:14:56;;;;;;;7.50;6.90;;;2.30;99.90;;;;;;4969460;28;20209;-67
2022/12/05 18:17:23;;;;;;;7.97;7.43;;;2.30;99.90;;;;;;4966967;28;20206;-69
2022/12/05 18:19:50;;;;;;;9.27;5.55;;;2.20;99.90;;;;;;4967261;28;20264;-69